»·PEaware :: N5756Q KBUF-KLGA

N5756Q :: KBUF-KLGA

FLIGHT INFORMATION

Flight Status: Arrived
Operator: Privately registered:
United States
More flights under this callsign
Pilot: Juan D. (11620)
Aircraft: MOONEY M-20 201 202 205 220 ATS MSE
(M20P)
More flights by this aircraft type
Origin: KBUF Buffalo Niagara Intl
United States
Destination: KLGA La Guardia
United States
More flights between these airports :: More routes between these airports
Route: DIRECT
File this flight plan on PilotEdge
Remarks:
Altitude:
(Current/Filed)
9,500ft
Speed:
(Current/Filed)
160kts
Departed: 26-Jun-20 10:02 AM
Arrived: 26-Jun-20 12:35 PM
Distance/Time
Traveled:
253nm/2:33
Distance/Time
To Go:
Arrived

Flight Plot

Page will automatically refresh every two minutes.

Flight plan parsing failed; only flown route is shown


Map Options




Map Legend


Flown Route
Filed Route
Departure Airport
Arrival Airport
Navaid (VOR, NDB)
Fix

Horizontal Profiles

Position Reports

Time Latitude Longitude Heading Altitude Ground
Speed
26-Jun-20 10:00 42.933445 -78.738750 44 727ft 70kts
26-Jun-20 10:01 42.951024 -78.710326 87 1466ft 107kts
26-Jun-20 10:02 42.932147 -78.685890 157 2379ft 98kts
26-Jun-20 10:03 42.909285 -78.664822 144 3276ft 102kts
26-Jun-20 10:04 42.891042 -78.635216 132 4173ft 101kts
26-Jun-20 10:05 42.876281 -78.603997 130 5063ft 93kts
26-Jun-20 10:06 42.863917 -78.575468 131 5844ft 85kts
26-Jun-20 10:07 42.851968 -78.547125 130 6490ft 88kts
26-Jun-20 10:08 42.838225 -78.514079 126 7034ft 112kts
26-Jun-20 10:09 42.821643 -78.473609 124 7577ft 131kts
26-Jun-20 10:10 42.802926 -78.428026 123 8105ft 143kts
26-Jun-20 10:11 42.783438 -78.380599 123 8778ft 135kts
26-Jun-20 10:12 42.766704 -78.339950 125 9500ft 126kts
26-Jun-20 10:13 42.759852 -78.285948 94 9513ft 171kts
26-Jun-20 10:14 42.754905 -78.218254 96 9509ft 189kts
26-Jun-20 10:15 42.749000 -78.146773 96 9530ft 195kts
26-Jun-20 10:16 42.742879 -78.074305 96 9574ft 196kts
26-Jun-20 10:17 42.736667 -78.001305 95 9604ft 197kts
26-Jun-20 10:18 42.730558 -77.930266 95 9626ft 198kts
26-Jun-20 10:19 42.724586 -77.861021 95 9646ft 198kts
26-Jun-20 10:20 42.718453 -77.790596 95 9659ft 199kts
26-Jun-20 10:21 42.712201 -77.719244 95 9681ft 199kts
26-Jun-20 10:22 42.705487 -77.643279 95 9688ft 200kts
26-Jun-20 10:23 42.698807 -77.568331 95 9699ft 200kts
26-Jun-20 10:24 42.692084 -77.493449 95 9706ft 200kts
26-Jun-20 10:25 42.685291 -77.418220 96 9713ft 200kts
26-Jun-20 10:26 42.678477 -77.343318 96 9716ft 200kts
26-Jun-20 10:27 42.671625 -77.268704 96 9703ft 200kts
26-Jun-20 10:28 42.664709 -77.193852 96 9697ft 200kts
26-Jun-20 10:29 42.657744 -77.119016 96 9694ft 200kts
26-Jun-20 10:30 42.650777 -77.044704 96 9694ft 199kts
26-Jun-20 10:31 42.643745 -76.970239 96 9713ft 198kts
26-Jun-20 10:32 42.636726 -76.896413 97 9728ft 196kts
26-Jun-20 10:33 42.629781 -76.823882 97 9740ft 194kts
26-Jun-20 10:34 42.622754 -76.751034 96 9737ft 193kts
26-Jun-20 10:35 42.615756 -76.678929 96 9731ft 193kts
26-Jun-20 10:36 42.608727 -76.606985 96 9734ft 192kts
26-Jun-20 10:37 42.601629 -76.534800 96 9736ft 192kts
26-Jun-20 10:38 42.594524 -76.463000 96 9736ft 192kts
26-Jun-20 10:39 42.587359 -76.391089 96 9740ft 192kts
26-Jun-20 10:40 42.580247 -76.320150 97 9738ft 192kts
26-Jun-20 10:41 42.573277 -76.251167 97 9740ft 192kts
26-Jun-20 10:42 42.566224 -76.181759 96 9745ft 191kts
26-Jun-20 10:43 42.558943 -76.110492 96 9754ft 190kts
26-Jun-20 10:44 42.551688 -76.039870 96 9759ft 189kts
26-Jun-20 10:46 42.544430 -75.969667 96 9759ft 189kts
26-Jun-20 10:47 42.537067 -75.898932 96 9760ft 189kts
26-Jun-20 10:48 42.529647 -75.828062 96 9759ft 189kts
26-Jun-20 10:49 42.522192 -75.757328 96 9759ft 189kts
26-Jun-20 10:50 42.514675 -75.686418 96 9762ft 189kts
26-Jun-20 10:51 42.507131 -75.615673 96 9768ft 189kts
26-Jun-20 10:52 42.499534 -75.544813 96 9765ft 190kts
26-Jun-20 10:53 42.491860 -75.473718 96 9761ft 191kts
26-Jun-20 10:54 42.484138 -75.402590 97 9762ft 191kts
26-Jun-20 10:55 42.476362 -75.331382 98 9759ft 191kts
26-Jun-20 10:56 42.468510 -75.259942 98 9755ft 191kts
26-Jun-20 10:57 42.449398 -75.193397 117 9731ft 192kts
26-Jun-20 10:58 42.426245 -75.129670 117 9751ft 192kts
26-Jun-20 10:59 42.402620 -75.065029 118 9768ft 191kts
26-Jun-20 11:00 42.378983 -75.000529 118 9778ft 191kts
26-Jun-20 11:00 42.359257 -74.946845 118 9788ft 191kts
26-Jun-20 11:02 42.331618 -74.871761 119 9797ft 191kts
26-Jun-20 11:02 42.311945 -74.818448 119 9798ft 191kts
26-Jun-20 11:04 42.284245 -74.743515 118 9801ft 191kts
26-Jun-20 11:05 42.260512 -74.679496 118 9797ft 191kts
26-Jun-20 11:05 42.240627 -74.625976 118 9806ft 191kts
26-Jun-20 11:07 42.212772 -74.551179 118 9812ft 191kts
26-Jun-20 11:07 42.192877 -74.497846 118 9816ft 191kts
26-Jun-20 11:08 42.168887 -74.433705 118 9821ft 191kts
26-Jun-20 11:09 42.144848 -74.369580 118 9815ft 192kts
26-Jun-20 11:10 42.121144 -74.306501 119 9811ft 191kts
26-Jun-20 11:11 42.094775 -74.245693 125 9795ft 190kts
26-Jun-20 11:12 42.065600 -74.187166 125 9770ft 191kts
26-Jun-20 11:13 42.037190 -74.130360 125 9746ft 191kts
26-Jun-20 11:14 42.008721 -74.073524 125 9739ft 190kts
26-Jun-20 11:15 41.980166 -74.016648 125 9733ft 190kts
26-Jun-20 11:16 41.951029 -73.958725 125 9730ft 190kts
26-Jun-20 11:17 41.921506 -73.900149 125 9728ft 190kts
26-Jun-20 11:18 41.892025 -73.841768 125 9726ft 190kts
26-Jun-20 11:19 41.853396 -73.808296 166 9715ft 184kts
26-Jun-20 11:20 41.807193 -73.789598 166 9708ft 184kts
26-Jun-20 11:21 41.760807 -73.771100 166 9710ft 184kts
26-Jun-20 11:22 41.714058 -73.752523 167 9711ft 185kts
26-Jun-20 11:23 41.667694 -73.734131 167 9716ft 184kts
26-Jun-20 11:24 41.619907 -73.715207 167 9715ft 185kts
26-Jun-20 11:25 41.571073 -73.695895 167 9727ft 184kts
26-Jun-20 11:26 41.521967 -73.676531 167 9742ft 183kts
26-Jun-20 11:27 41.473087 -73.657290 168 9767ft 182kts
26-Jun-20 11:28 41.424972 -73.638383 168 9774ft 181kts
26-Jun-20 11:29 41.376887 -73.619477 168 9782ft 181kts
26-Jun-20 11:30 41.328746 -73.600594 167 9764ft 182kts
26-Jun-20 11:31 41.280367 -73.581550 164 9766ft 183kts
26-Jun-20 11:32 41.233595 -73.554917 160 9781ft 184kts
26-Jun-20 11:33 41.186696 -73.536596 215 9590ft 180kts
26-Jun-20 11:34 41.148798 -73.566665 216 9767ft 170kts
26-Jun-20 11:35 41.111395 -73.597721 216 9772ft 170kts
26-Jun-20 11:36 41.073640 -73.629095 217 9779ft 171kts
26-Jun-20 11:37 41.036072 -73.660126 217 9784ft 171kts
26-Jun-20 11:38 41.000114 -73.689779 218 9792ft 171kts
26-Jun-20 11:39 40.964772 -73.718886 219 9793ft 172kts
26-Jun-20 11:40 40.931126 -73.746576 219 9795ft 173kts
26-Jun-20 11:41 40.899076 -73.772910 219 9793ft 173kts
26-Jun-20 11:42 40.868463 -73.798033 219 9787ft 173kts
26-Jun-20 11:43 40.839008 -73.822179 219 9783ft 173kts
26-Jun-20 11:44 40.808768 -73.846942 219 9783ft 173kts
26-Jun-20 11:45 40.782611 -73.868342 219 9792ft 172kts
26-Jun-20 11:46 40.757283 -73.890892 224 9799ft 169kts
26-Jun-20 11:47 40.730718 -73.920603 230 9811ft 166kts
26-Jun-20 11:48 40.707279 -73.954043 236 9814ft 163kts
26-Jun-20 11:49 40.687268 -73.990979 243 9810ft 160kts
26-Jun-20 11:50 40.671453 -74.029841 249 9806ft 158kts
26-Jun-20 11:51 40.659612 -74.070821 255 9794ft 158kts
26-Jun-20 11:52 40.651800 -74.113845 260 9755ft 160kts
26-Jun-20 11:53 40.648178 -74.158724 269 9739ft 161kts
26-Jun-20 11:54 40.648986 -74.204944 276 9761ft 160kts
26-Jun-20 11:55 40.654638 -74.251845 284 9809ft 157kts
26-Jun-20 11:56 40.665520 -74.297632 291 9833ft 154kts
26-Jun-20 11:57 40.680918 -74.339483 299 9840ft 154kts
26-Jun-20 11:58 40.701479 -74.378989 307 9840ft 154kts
26-Jun-20 11:59 40.728753 -74.416842 315 9835ft 155kts
26-Jun-20 12:00 40.765709 -74.452895 324 9820ft 157kts
26-Jun-20 12:01 40.808944 -74.480715 333 9787ft 161kts
26-Jun-20 12:02 40.855708 -74.497954 343 9789ft 163kts
26-Jun-20 12:03 40.900430 -74.503976 352 9783ft 166kts
26-Jun-20 12:04 40.944258 -74.500744 1 9785ft 168kts
26-Jun-20 12:05 40.988438 -74.488365 10 9778ft 171kts
26-Jun-20 12:06 41.032808 -74.466201 19 9770ft 174kts
26-Jun-20 12:07 41.075676 -74.434151 29 9777ft 177kts
26-Jun-20 12:08 41.112889 -74.395693 38 9793ft 179kts
26-Jun-20 12:09 41.143737 -74.353546 46 9796ft 181kts
26-Jun-20 12:10 41.170728 -74.305320 54 9798ft 184kts
26-Jun-20 12:11 41.192994 -74.252249 61 9796ft 186kts
26-Jun-20 12:12 41.210034 -74.195548 69 9794ft 188kts
26-Jun-20 12:13 41.221476 -74.137064 77 9789ft 190kts
26-Jun-20 12:14 41.227465 -74.076363 85 9795ft 191kts
26-Jun-20 12:15 41.227777 -74.015569 92 9797ft 191kts
26-Jun-20 12:16 41.222432 -73.954745 100 9803ft 191kts
26-Jun-20 12:17 41.213117 -73.902401 106 9812ft 191kts
26-Jun-20 12:18 41.192584 -73.842430 159 9598ft 198kts
26-Jun-20 12:19 41.146279 -73.833866 166 9896ft 178kts
26-Jun-20 12:20 41.107988 -73.817608 166 9184ft 153kts
26-Jun-20 12:21 41.072403 -73.802469 165 8210ft 150kts
26-Jun-20 12:22 41.038694 -73.788140 165 7281ft 149kts
26-Jun-20 12:23 41.005410 -73.774005 165 6362ft 149kts
26-Jun-20 12:24 40.970744 -73.759300 164 5402ft 148kts
26-Jun-20 12:25 40.936858 -73.747263 198 4462ft 143kts
26-Jun-20 12:26 40.909834 -73.768979 216 3574ft 137kts
26-Jun-20 12:27 40.884984 -73.788901 215 2735ft 136kts
26-Jun-20 12:28 40.862313 -73.808407 224 2002ft 128kts
26-Jun-20 12:29 40.843284 -73.824604 217 1690ft 105kts
26-Jun-20 12:30 40.827412 -73.837235 221 1272ft 92kts
26-Jun-20 12:31 40.812749 -73.848105 219 855ft 90kts
26-Jun-20 12:32 40.799134 -73.859339 217 455ft 88kts
26-Jun-20 12:33 40.787577 -73.868724 214 218ft 71kts
26-Jun-20 12:34 40.777851 -73.876922 204 23ft 32kts
26-Jun-20 12:35 40.777298 -73.876034 53 23ft 0kts
26-Jun-20 12:36 40.777298 -73.876034 53 23ft 0kts

Navigation Log

Ident Type
Flight plan parsing failed, navigation log unavailable